sensor_id;sensor_type;location;lat;lon;timestamp;temperature;humidity
66576;SHT31;53428;47.686;16.584;2023-04-08T00:02:01;5.97;79.78
66576;SHT31;53428;47.686;16.584;2023-04-08T00:07:00;5.94;79.83
66576;SHT31;53428;47.686;16.584;2023-04-08T00:11:59;5.86;79.87
66576;SHT31;53428;47.686;16.584;2023-04-08T00:16:59;5.74;80.25
66576;SHT31;53428;47.686;16.584;2023-04-08T00:21:58;5.57;80.68
66576;SHT31;53428;47.686;16.584;2023-04-08T00:26:57;5.53;81.39
66576;SHT31;53428;47.686;16.584;2023-04-08T00:31:57;5.56;81.35
66576;SHT31;53428;47.686;16.584;2023-04-08T00:36:56;5.38;82.37
66576;SHT31;53428;47.686;16.584;2023-04-08T00:41:55;5.13;85.03
66576;SHT31;53428;47.686;16.584;2023-04-08T00:46:56;5.33;85.12
66576;SHT31;53428;47.686;16.584;2023-04-08T00:51:55;5.15;87.29
66576;SHT31;53428;47.686;16.584;2023-04-08T00:56:54;5.05;88.55
66576;SHT31;53428;47.686;16.584;2023-04-08T01:02:01;4.91;90.16
66576;SHT31;53428;47.686;16.584;2023-04-08T01:07:17;5.09;90.17
66576;SHT31;53428;47.686;16.584;2023-04-08T01:12:25;4.95;91.05
66576;SHT31;53428;47.686;16.584;2023-04-08T01:17:25;4.87;92.28
66576;SHT31;53428;47.686;16.584;2023-04-08T01:27:33;4.78;93.94
66576;SHT31;53428;47.686;16.584;2023-04-08T01:32:34;4.96;93.02
66576;SHT31;53428;47.686;16.584;2023-04-08T01:37:35;4.71;95.36
66576;SHT31;53428;47.686;16.584;2023-04-08T01:42:35;4.81;95.30
66576;SHT31;53428;47.686;16.584;2023-04-08T01:47:36;4.77;96.12
66576;SHT31;53428;47.686;16.584;2023-04-08T01:52:37;4.77;96.38
66576;SHT31;53428;47.686;16.584;2023-04-08T01:57:37;4.68;96.86
66576;SHT31;53428;47.686;16.584;2023-04-08T02:02:40;4.71;96.75
66576;SHT31;53428;47.686;16.584;2023-04-08T02:07:40;4.50;97.96
66576;SHT31;53428;47.686;16.584;2023-04-08T02:12:40;4.57;97.19
66576;SHT31;53428;47.686;16.584;2023-04-08T02:17:51;4.56;97.22
66576;SHT31;53428;47.686;16.584;2023-04-08T02:23:05;4.43;98.16
66576;SHT31;53428;47.686;16.584;2023-04-08T02:28:09;4.37;98.48
66576;SHT31;53428;47.686;16.584;2023-04-08T02:33:10;4.49;98.52
66576;SHT31;53428;47.686;16.584;2023-04-08T02:38:09;4.29;98.38
66576;SHT31;53428;47.686;16.584;2023-04-08T02:43:09;4.29;98.57
66576;SHT31;53428;47.686;16.584;2023-04-08T02:48:09;4.12;99.81
66576;SHT31;53428;47.686;16.584;2023-04-08T02:53:08;3.92;99.99
66576;SHT31;53428;47.686;16.584;2023-04-08T02:58:08;3.89;99.99
66576;SHT31;53428;47.686;16.584;2023-04-08T03:03:07;4.16;99.99
66576;SHT31;53428;47.686;16.584;2023-04-08T03:08:06;4.12;99.89
66576;SHT31;53428;47.686;16.584;2023-04-08T03:13:06;4.20;99.89
66576;SHT31;53428;47.686;16.584;2023-04-08T03:18:05;4.12;99.97
66576;SHT31;53428;47.686;16.584;2023-04-08T03:23:04;4.12;99.76
66576;SHT31;53428;47.686;16.584;2023-04-08T03:28:04;4.26;99.99
66576;SHT31;53428;47.686;16.584;2023-04-08T03:33:03;4.22;99.84
66576;SHT31;53428;47.686;16.584;2023-04-08T03:38:06;4.22;99.99
66576;SHT31;53428;47.686;16.584;2023-04-08T03:43:05;4.30;99.49
66576;SHT31;53428;47.686;16.584;2023-04-08T03:48:06;4.28;99.50
66576;SHT31;53428;47.686;16.584;2023-04-08T03:53:06;4.23;99.44
66576;SHT31;53428;47.686;16.584;2023-04-08T03:58:09;4.29;99.94
66576;SHT31;53428;47.686;16.584;2023-04-08T04:03:08;4.23;99.99
66576;SHT31;53428;47.686;16.584;2023-04-08T04:08:10;4.17;99.80
66576;SHT31;53428;47.686;16.584;2023-04-08T04:13:10;4.20;99.99
66576;SHT31;53428;47.686;16.584;2023-04-08T04:18:09;4.20;99.99
66576;SHT31;53428;47.686;16.584;2023-04-08T04:23:08;3.94;99.99
66576;SHT31;53428;47.686;16.584;2023-04-08T04:28:08;3.98;99.99
66576;SHT31;53428;47.686;16.584;2023-04-08T04:33:08;4.06;99.43
66576;SHT31;53428;47.686;16.584;2023-04-08T04:38:07;3.95;99.99
66576;SHT31;53428;47.686;16.584;2023-04-08T04:43:10;3.79;99.99
66576;SHT31;53428;47.686;16.584;2023-04-08T04:48:10;3.71;99.75
66576;SHT31;53428;47.686;16.584;2023-04-08T04:53:09;3.84;98.61
66576;SHT31;53428;47.686;16.584;2023-04-08T04:58:08;3.87;98.72
66576;SHT31;53428;47.686;16.584;2023-04-08T05:03:08;3.89;97.39
66576;SHT31;53428;47.686;16.584;2023-04-08T05:08:07;3.89;97.16
66576;SHT31;53428;47.686;16.584;2023-04-08T05:13:06;3.77;97.48
66576;SHT31;53428;47.686;16.584;2023-04-08T05:18:06;3.87;98.07
66576;SHT31;53428;47.686;16.584;2023-04-08T05:23:05;3.92;98.03
66576;SHT31;53428;47.686;16.584;2023-04-08T05:28:05;3.73;98.93
66576;SHT31;53428;47.686;16.584;2023-04-08T05:33:05;3.46;99.53
66576;SHT31;53428;47.686;16.584;2023-04-08T05:38:04;3.58;99.78
66576;SHT31;53428;47.686;16.584;2023-04-08T05:43:06;3.50;99.94
66576;SHT31;53428;47.686;16.584;2023-04-08T05:48:05;3.46;99.83
66576;SHT31;53428;47.686;16.584;2023-04-08T05:53:04;3.33;98.02
66576;SHT31;53428;47.686;16.584;2023-04-08T05:58:03;3.08;99.99
66576;SHT31;53428;47.686;16.584;2023-04-08T06:03:03;3.15;99.91
66576;SHT31;53428;47.686;16.584;2023-04-08T06:08:03;3.29;99.36
66576;SHT31;53428;47.686;16.584;2023-04-08T06:13:02;3.08;97.52
66576;SHT31;53428;47.686;16.584;2023-04-08T06:18:01;3.22;97.42
66576;SHT31;53428;47.686;16.584;2023-04-08T06:23:01;3.00;96.72
66576;SHT31;53428;47.686;16.584;2023-04-08T06:28:00;2.99;97.34
66576;SHT31;53428;47.686;16.584;2023-04-08T06:32:59;2.82;97.11
66576;SHT31;53428;47.686;16.584;2023-04-08T06:37:58;2.82;97.98
66576;SHT31;53428;47.686;16.584;2023-04-08T06:42:58;2.66;96.91
66576;SHT31;53428;47.686;16.584;2023-04-08T06:47:57;2.57;97.38
66576;SHT31;53428;47.686;16.584;2023-04-08T06:52:57;2.66;97.41
66576;SHT31;53428;47.686;16.584;2023-04-08T06:57:56;2.75;96.72
66576;SHT31;53428;47.686;16.584;2023-04-08T07:02:55;2.87;97.15
66576;SHT31;53428;47.686;16.584;2023-04-08T07:07:55;2.87;96.41
66576;SHT31;53428;47.686;16.584;2023-04-08T07:12:54;2.89;97.10
66576;SHT31;53428;47.686;16.584;2023-04-08T07:17:54;2.91;96.39
66576;SHT31;53428;47.686;16.584;2023-04-08T07:22:57;2.98;96.07
66576;SHT31;53428;47.686;16.584;2023-04-08T07:27:57;2.98;96.88
66576;SHT31;53428;47.686;16.584;2023-04-08T07:32:56;2.91;97.07
66576;SHT31;53428;47.686;16.584;2023-04-08T07:37:56;2.77;96.73
66576;SHT31;53428;47.686;16.584;2023-04-08T07:42:56;2.75;97.59
66576;SHT31;53428;47.686;16.584;2023-04-08T07:47:55;2.74;97.12
66576;SHT31;53428;47.686;16.584;2023-04-08T07:52:54;2.85;97.66
66576;SHT31;53428;47.686;16.584;2023-04-08T07:57:54;2.91;97.06
66576;SHT31;53428;47.686;16.584;2023-04-08T08:02:54;2.71;97.92
66576;SHT31;53428;47.686;16.584;2023-04-08T08:07:53;2.87;97.66
66576;SHT31;53428;47.686;16.584;2023-04-08T08:12:53;3.00;96.43
66576;SHT31;53428;47.686;16.584;2023-04-08T08:17:52;2.96;97.36
66576;SHT31;53428;47.686;16.584;2023-04-08T08:22:51;3.16;97.81
66576;SHT31;53428;47.686;16.584;2023-04-08T08:27:51;3.39;97.03
66576;SHT31;53428;47.686;16.584;2023-04-08T08:32:50;3.26;96.19
66576;SHT31;53428;47.686;16.584;2023-04-08T08:37:50;3.47;95.85
66576;SHT31;53428;47.686;16.584;2023-04-08T08:42:50;3.47;95.08
66576;SHT31;53428;47.686;16.584;2023-04-08T08:47:50;3.44;96.94
66576;SHT31;53428;47.686;16.584;2023-04-08T08:52:51;3.44;96.99
66576;SHT31;53428;47.686;16.584;2023-04-08T08:57:50;3.68;96.45
66576;SHT31;53428;47.686;16.584;2023-04-08T09:02:50;3.29;96.49
66576;SHT31;53428;47.686;16.584;2023-04-08T09:07:49;3.47;95.53
66576;SHT31;53428;47.686;16.584;2023-04-08T09:12:54;3.31;96.28
66576;SHT31;53428;47.686;16.584;2023-04-08T09:17:54;3.53;97.30
66576;SHT31;53428;47.686;16.584;2023-04-08T09:27:55;3.39;95.20
66576;SHT31;53428;47.686;16.584;2023-04-08T09:32:56;3.46;97.16
66576;SHT31;53428;47.686;16.584;2023-04-08T09:37:55;3.36;96.56
66576;SHT31;53428;47.686;16.584;2023-04-08T09:42:56;3.34;95.79
66576;SHT31;53428;47.686;16.584;2023-04-08T09:48:19;3.61;96.30
66576;SHT31;53428;47.686;16.584;2023-04-08T09:53:34;3.31;96.01
66576;SHT31;53428;47.686;16.584;2023-04-08T09:58:53;3.57;96.15
66576;SHT31;53428;47.686;16.584;2023-04-08T10:03:56;3.61;95.41
66576;SHT31;53428;47.686;16.584;2023-04-08T10:08:57;3.75;95.92
66576;SHT31;53428;47.686;16.584;2023-04-08T10:13:57;3.63;96.17
66576;SHT31;53428;47.686;16.584;2023-04-08T10:18:56;3.56;96.20
66576;SHT31;53428;47.686;16.584;2023-04-08T10:23:57;3.73;95.03
66576;SHT31;53428;47.686;16.584;2023-04-08T10:29:29;3.73;94.75
66576;SHT31;53428;47.686;16.584;2023-04-08T10:34:28;3.63;96.03
66576;SHT31;53428;47.686;16.584;2023-04-08T10:39:29;3.82;95.64
66576;SHT31;53428;47.686;16.584;2023-04-08T10:44:29;3.71;95.29
66576;SHT31;53428;47.686;16.584;2023-04-08T10:49:33;3.78;94.44
66576;SHT31;53428;47.686;16.584;2023-04-08T10:54:33;3.88;94.85
66576;SHT31;53428;47.686;16.584;2023-04-08T10:59:32;3.77;94.51
66576;SHT31;53428;47.686;16.584;2023-04-08T11:04:31;3.99;96.01
66576;SHT31;53428;47.686;16.584;2023-04-08T11:09:33;4.06;94.74
66576;SHT31;53428;47.686;16.584;2023-04-08T11:14:32;4.05;94.69
66576;SHT31;53428;47.686;16.584;2023-04-08T11:19:32;3.87;94.07
66576;SHT31;53428;47.686;16.584;2023-04-08T11:24:35;4.19;93.88
66576;SHT31;53428;47.686;16.584;2023-04-08T11:29:36;4.06;94.51
66576;SHT31;53428;47.686;16.584;2023-04-08T11:34:38;3.87;95.02
66576;SHT31;53428;47.686;16.584;2023-04-08T11:39:44;4.15;94.70
66576;SHT31;53428;47.686;16.584;2023-04-08T11:44:43;4.12;94.27
66576;SHT31;53428;47.686;16.584;2023-04-08T11:49:44;4.12;95.53
66576;SHT31;53428;47.686;16.584;2023-04-08T11:54:43;4.13;95.11
66576;SHT31;53428;47.686;16.584;2023-04-08T11:59:43;4.08;94.01
66576;SHT31;53428;47.686;16.584;2023-04-08T12:04:42;4.20;94.54
66576;SHT31;53428;47.686;16.584;2023-04-08T12:09:41;4.30;94.65
66576;SHT31;53428;47.686;16.584;2023-04-08T12:14:40;4.13;95.78
66576;SHT31;53428;47.686;16.584;2023-04-08T12:19:40;4.46;93.94
66576;SHT31;53428;47.686;16.584;2023-04-08T12:24:39;4.49;94.42
66576;SHT31;53428;47.686;16.584;2023-04-08T12:29:38;4.33;94.77
66576;SHT31;53428;47.686;16.584;2023-04-08T12:34:38;4.43;94.99
66576;SHT31;53428;47.686;16.584;2023-04-08T12:39:37;4.70;93.64
66576;SHT31;53428;47.686;16.584;2023-04-08T12:44:36;4.70;93.88
66576;SHT31;53428;47.686;16.584;2023-04-08T12:49:36;4.39;94.49
66576;SHT31;53428;47.686;16.584;2023-04-08T12:54:35;4.52;94.53
66576;SHT31;53428;47.686;16.584;2023-04-08T12:59:34;4.57;94.49
66576;SHT31;53428;47.686;16.584;2023-04-08T13:04:35;4.39;94.89
66576;SHT31;53428;47.686;16.584;2023-04-08T13:09:35;4.33;94.12
66576;SHT31;53428;47.686;16.584;2023-04-08T13:14:34;4.52;95.40
66576;SHT31;53428;47.686;16.584;2023-04-08T13:19:34;4.70;94.72
66576;SHT31;53428;47.686;16.584;2023-04-08T13:24:33;4.74;93.53
66576;SHT31;53428;47.686;16.584;2023-04-08T13:29:33;4.83;93.81
66576;SHT31;53428;47.686;16.584;2023-04-08T13:34:32;4.68;93.57
66576;SHT31;53428;47.686;16.584;2023-04-08T13:39:31;4.52;94.88
66576;SHT31;53428;47.686;16.584;2023-04-08T13:44:31;4.22;95.77
66576;SHT31;53428;47.686;16.584;2023-04-08T13:49:31;4.71;95.96
66576;SHT31;53428;47.686;16.584;2023-04-08T13:54:31;4.70;95.20
66576;SHT31;53428;47.686;16.584;2023-04-08T13:59:30;4.80;93.37
66576;SHT31;53428;47.686;16.584;2023-04-08T14:04:30;4.91;94.06
66576;SHT31;53428;47.686;16.584;2023-04-08T14:09:29;4.85;93.34
66576;SHT31;53428;47.686;16.584;2023-04-08T14:14:29;4.80;92.82
66576;SHT31;53428;47.686;16.584;2023-04-08T14:19:28;4.65;94.02
66576;SHT31;53428;47.686;16.584;2023-04-08T14:24:27;5.04;93.20
66576;SHT31;53428;47.686;16.584;2023-04-08T14:29:27;4.88;92.78
66576;SHT31;53428;47.686;16.584;2023-04-08T14:34:26;4.95;93.85
66576;SHT31;53428;47.686;16.584;2023-04-08T14:39:26;4.83;92.86
66576;SHT31;53428;47.686;16.584;2023-04-08T14:44:26;4.83;93.23
66576;SHT31;53428;47.686;16.584;2023-04-08T14:49:25;5.19;93.14
66576;SHT31;53428;47.686;16.584;2023-04-08T14:54:25;5.22;91.83
66576;SHT31;53428;47.686;16.584;2023-04-08T14:59:24;5.02;91.56
66576;SHT31;53428;47.686;16.584;2023-04-08T15:04:24;5.18;92.61
66576;SHT31;53428;47.686;16.584;2023-04-08T15:09:23;5.04;93.64
66576;SHT31;53428;47.686;16.584;2023-04-08T15:14:22;4.85;94.66
66576;SHT31;53428;47.686;16.584;2023-04-08T15:19:22;4.91;94.65
66576;SHT31;53428;47.686;16.584;2023-04-08T15:24:21;4.99;93.75
66576;SHT31;53428;47.686;16.584;2023-04-08T15:29:21;4.85;93.04
66576;SHT31;53428;47.686;16.584;2023-04-08T15:34:21;5.01;92.99
66576;SHT31;53428;47.686;16.584;2023-04-08T15:39:22;5.04;93.29
66576;SHT31;53428;47.686;16.584;2023-04-08T15:44:21;4.80;93.93
66576;SHT31;53428;47.686;16.584;2023-04-08T15:49:22;5.02;94.38
66576;SHT31;53428;47.686;16.584;2023-04-08T15:54:21;5.11;93.94
66576;SHT31;53428;47.686;16.584;2023-04-08T15:59:21;5.19;93.96
66576;SHT31;53428;47.686;16.584;2023-04-08T16:04:20;5.01;93.52
66576;SHT31;53428;47.686;16.584;2023-04-08T16:09:20;4.83;93.88
66576;SHT31;53428;47.686;16.584;2023-04-08T16:14:23;4.68;94.46
66576;SHT31;53428;47.686;16.584;2023-04-08T16:19:23;4.68;94.40
66576;SHT31;53428;47.686;16.584;2023-04-08T16:24:22;4.58;94.93
66576;SHT31;53428;47.686;16.584;2023-04-08T16:29:22;4.52;94.80
66576;SHT31;53428;47.686;16.584;2023-04-08T16:34:21;4.49;94.57
66576;SHT31;53428;47.686;16.584;2023-04-08T16:39:20;4.53;95.41
66576;SHT31;53428;47.686;16.584;2023-04-08T16:44:20;4.52;95.16
66576;SHT31;53428;47.686;16.584;2023-04-08T16:49:19;4.49;95.56
66576;SHT31;53428;47.686;16.584;2023-04-08T16:54:18;4.53;96.42
66576;SHT31;53428;47.686;16.584;2023-04-08T16:59:18;4.52;96.20
66576;SHT31;53428;47.686;16.584;2023-04-08T17:04:17;4.53;96.56
66576;SHT31;53428;47.686;16.584;2023-04-08T17:09:17;4.49;96.64
66576;SHT31;53428;47.686;16.584;2023-04-08T17:14:16;4.40;97.16
66576;SHT31;53428;47.686;16.584;2023-04-08T17:19:15;4.52;97.50
66576;SHT31;53428;47.686;16.584;2023-04-08T17:24:15;4.44;98.09
66576;SHT31;53428;47.686;16.584;2023-04-08T17:29:15;4.53;98.18
66576;SHT31;53428;47.686;16.584;2023-04-08T17:34:14;4.44;98.23
66576;SHT31;53428;47.686;16.584;2023-04-08T17:39:14;4.44;98.31
66576;SHT31;53428;47.686;16.584;2023-04-08T17:44:14;4.47;98.61
66576;SHT31;53428;47.686;16.584;2023-04-08T17:49:13;4.52;98.46
66576;SHT31;53428;47.686;16.584;2023-04-08T17:54:12;4.46;98.78
66576;SHT31;53428;47.686;16.584;2023-04-08T17:59:11;4.46;98.71
66576;SHT31;53428;47.686;16.584;2023-04-08T18:04:11;4.44;98.57
66576;SHT31;53428;47.686;16.584;2023-04-08T18:09:11;4.43;98.90
66576;SHT31;53428;47.686;16.584;2023-04-08T18:14:10;4.40;98.46
66576;SHT31;53428;47.686;16.584;2023-04-08T18:19:11;4.32;98.91
66576;SHT31;53428;47.686;16.584;2023-04-08T18:24:10;4.40;99.15
66576;SHT31;53428;47.686;16.584;2023-04-08T18:29:09;4.33;99.14
66576;SHT31;53428;47.686;16.584;2023-04-08T18:34:09;4.35;99.00
66576;SHT31;53428;47.686;16.584;2023-04-08T18:39:08;4.40;98.86
66576;SHT31;53428;47.686;16.584;2023-04-08T18:44:08;4.32;98.95
66576;SHT31;53428;47.686;16.584;2023-04-08T18:49:07;4.33;99.34
66576;SHT31;53428;47.686;16.584;2023-04-08T18:54:07;4.35;99.22
66576;SHT31;53428;47.686;16.584;2023-04-08T18:59:06;4.36;99.15
66576;SHT31;53428;47.686;16.584;2023-04-08T19:04:05;4.29;99.38
66576;SHT31;53428;47.686;16.584;2023-04-08T19:09:05;4.29;99.65
66576;SHT31;53428;47.686;16.584;2023-04-08T19:14:07;4.29;99.34
66576;SHT31;53428;47.686;16.584;2023-04-08T19:19:06;4.25;99.47
66576;SHT31;53428;47.686;16.584;2023-04-08T19:24:05;4.30;99.82
66576;SHT31;53428;47.686;16.584;2023-04-08T19:29:07;4.23;99.91
66576;SHT31;53428;47.686;16.584;2023-04-08T19:34:07;4.26;99.88
66576;SHT31;53428;47.686;16.584;2023-04-08T19:39:06;4.22;99.84
66576;SHT31;53428;47.686;16.584;2023-04-08T19:44:06;4.17;99.99
66576;SHT31;53428;47.686;16.584;2023-04-08T19:49:05;4.15;99.99
66576;SHT31;53428;47.686;16.584;2023-04-08T19:54:05;4.16;99.99
66576;SHT31;53428;47.686;16.584;2023-04-08T19:59:04;4.19;99.99
66576;SHT31;53428;47.686;16.584;2023-04-08T20:04:04;4.16;99.99
66576;SHT31;53428;47.686;16.584;2023-04-08T20:09:03;4.16;99.85
66576;SHT31;53428;47.686;16.584;2023-04-08T20:14:03;4.16;99.97
66576;SHT31;53428;47.686;16.584;2023-04-08T20:19:02;4.19;99.82
66576;SHT31;53428;47.686;16.584;2023-04-08T20:24:02;4.12;99.97
66576;SHT31;53428;47.686;16.584;2023-04-08T20:29:01;4.15;99.99
66576;SHT31;53428;47.686;16.584;2023-04-08T20:34:01;4.06;99.99
66576;SHT31;53428;47.686;16.584;2023-04-08T20:39:01;4.05;99.99
66576;SHT31;53428;47.686;16.584;2023-04-08T20:44:01;4.10;99.99
66576;SHT31;53428;47.686;16.584;2023-04-08T20:49:02;4.13;99.91
66576;SHT31;53428;47.686;16.584;2023-04-08T20:54:01;4.06;99.87
66576;SHT31;53428;47.686;16.584;2023-04-08T20:59:01;4.06;99.90
66576;SHT31;53428;47.686;16.584;2023-04-08T21:04:01;4.05;99.99
66576;SHT31;53428;47.686;16.584;2023-04-08T21:09:02;3.98;99.99
66576;SHT31;53428;47.686;16.584;2023-04-08T21:14:02;3.98;99.74
66576;SHT31;53428;47.686;16.584;2023-04-08T21:19:01;3.95;99.99
66576;SHT31;53428;47.686;16.584;2023-04-08T21:24:02;4.02;99.46
66576;SHT31;53428;47.686;16.584;2023-04-08T21:29:02;3.99;99.96
66576;SHT31;53428;47.686;16.584;2023-04-08T21:34:02;4.01;99.99
66576;SHT31;53428;47.686;16.584;2023-04-08T21:39:01;4.02;99.99
66576;SHT31;53428;47.686;16.584;2023-04-08T21:44:01;4.08;99.95
66576;SHT31;53428;47.686;16.584;2023-04-08T21:49:00;3.99;99.99
66576;SHT31;53428;47.686;16.584;2023-04-08T21:53:59;4.02;99.99
66576;SHT31;53428;47.686;16.584;2023-04-08T21:58:59;3.99;99.99
66576;SHT31;53428;47.686;16.584;2023-04-08T22:03:58;4.05;99.99
66576;SHT31;53428;47.686;16.584;2023-04-08T22:08:57;4.03;99.99
66576;SHT31;53428;47.686;16.584;2023-04-08T22:13:57;4.01;99.99
66576;SHT31;53428;47.686;16.584;2023-04-08T22:18:56;3.99;99.99
66576;SHT31;53428;47.686;16.584;2023-04-08T22:23:55;4.01;99.99
66576;SHT31;53428;47.686;16.584;2023-04-08T22:28:55;4.01;99.99
66576;SHT31;53428;47.686;16.584;2023-04-08T22:33:54;4.02;99.99
66576;SHT31;53428;47.686;16.584;2023-04-08T22:38:54;4.06;99.99
66576;SHT31;53428;47.686;16.584;2023-04-08T22:43:53;4.05;99.99
66576;SHT31;53428;47.686;16.584;2023-04-08T22:48:53;4.06;99.99
66576;SHT31;53428;47.686;16.584;2023-04-08T22:53:53;4.03;99.99
66576;SHT31;53428;47.686;16.584;2023-04-08T22:58:52;4.05;99.99
66576;SHT31;53428;47.686;16.584;2023-04-08T23:03:51;3.98;99.99
66576;SHT31;53428;47.686;16.584;2023-04-08T23:08:51;3.91;99.99
66576;SHT31;53428;47.686;16.584;2023-04-08T23:13:51;3.94;99.99
66576;SHT31;53428;47.686;16.584;2023-04-08T23:18:50;3.89;99.99
66576;SHT31;53428;47.686;16.584;2023-04-08T23:23:50;3.92;99.99
66576;SHT31;53428;47.686;16.584;2023-04-08T23:28:49;3.84;99.99
66576;SHT31;53428;47.686;16.584;2023-04-08T23:33:49;3.84;99.99
66576;SHT31;53428;47.686;16.584;2023-04-08T23:38:48;3.87;99.99
66576;SHT31;53428;47.686;16.584;2023-04-08T23:43:48;3.85;99.99
66576;SHT31;53428;47.686;16.584;2023-04-08T23:48:47;3.89;99.99
66576;SHT31;53428;47.686;16.584;2023-04-08T23:53:47;3.98;99.99
66576;SHT31;53428;47.686;16.584;2023-04-08T23:58:46;3.98;99.99
